Time;durP1;ratioP1;P1;durP2;ratioP2;P2;SDS_P1;SDS_P2;PMS_P1;PMS_P2;Temp;Humidity;BMP_temperature;BMP_pressure;BME280_temperature;BME280_humidity;BME280_pressure;Samples;Min_cycle;Max_cycle;Signal;HPM_P1;HPM_P2
2022/06/16 00:01:35;;;;;;;5.05;1.80;;;;;;;12.04;89.41;100994.80;1750005;80;20897;-39
2022/06/16 00:04:02;;;;;;;3.05;1.55;;;;;;;11.98;89.79;101000.91;1749935;81;20865;-39
2022/06/16 00:06:28;;;;;;;3.75;2.08;;;;;;;11.96;89.93;101002.67;1749985;82;21094;-39
2022/06/16 00:08:56;;;;;;;4.85;2.30;;;;;;;11.94;90.21;100997.95;1749895;81;20975;-39
2022/06/16 00:12:17;;;;;;;1.55;1.45;;;;;;;12.03;92.32;101005.64;1798542;79;22733;-39
2022/06/16 00:14:44;;;;;;;1.92;1.45;;;;;;;11.97;93.12;101003.08;1758202;80;21557;-39
2022/06/16 00:17:11;;;;;;;7.03;2.05;;;;;;;11.98;93.67;101009.14;1758136;81;21062;-39
2022/06/16 00:19:38;;;;;;;7.50;2.10;;;;;;;11.95;93.59;101002.70;1758022;81;20932;-39
2022/06/16 00:22:05;;;;;;;7.65;2.02;;;;;;;11.97;92.96;101001.78;1758155;81;20924;-39
2022/06/16 00:24:32;;;;;;;9.40;1.77;;;;;;;12.02;91.67;101006.52;1758222;81;20963;-39
2022/06/16 00:26:59;;;;;;;4.37;1.90;;;;;;;12.05;91.01;101008.19;1758151;81;21031;-39
2022/06/16 00:29:26;;;;;;;6.92;2.10;;;;;;;12.04;90.80;101010.37;1758237;81;21079;-39
2022/06/16 00:31:53;;;;;;;5.92;2.00;;;;;;;12.03;90.43;101010.83;1758163;81;20936;-39
2022/06/16 00:34:21;;;;;;;2.42;1.72;;;;;;;12.09;91.41;101015.50;1758092;81;21014;-39
2022/06/16 00:36:49;;;;;;;3.45;1.77;;;;;;;12.13;92.32;101012.84;1758134;81;21458;-40
2022/06/16 00:39:16;;;;;;;3.55;1.30;;;;;;;12.11;92.26;101014.57;1743020;81;20920;-40
2022/06/16 00:41:42;;;;;;;3.87;1.40;;;;;;;12.13;92.50;101011.97;1758013;81;21052;-40
2022/06/16 00:44:33;;;;;;;4.00;1.40;;;;;;;12.20;91.59;101015.74;1751167;81;20983;-40
2022/06/16 00:46:59;;;;;;;3.60;1.60;;;;;;;12.29;90.94;101015.16;1749649;81;21434;-40
2022/06/16 00:49:26;;;;;;;4.40;1.50;;;;;;;12.34;90.36;101017.23;1749856;82;20987;-40
2022/06/16 00:51:57;;;;;;;2.12;1.30;;;;;;;12.31;89.96;101011.67;1682790;82;21466;-41
2022/06/16 00:54:30;;;;;;;2.67;1.42;;;;;;;12.31;89.70;101017.29;1749763;82;21126;-40
2022/06/16 00:57:13;;;;;;;9.85;1.77;;;;;;;12.28;90.38;101014.75;1720341;82;20884;-40
2022/06/16 00:59:40;;;;;;;4.25;1.40;;;;;;;12.28;90.76;101012.16;1749772;82;21042;-41
2022/06/16 01:02:08;;;;;;;3.92;1.30;;;;;;;12.26;91.10;101014.80;1750055;82;21502;-40
2022/06/16 01:04:52;;;;;;;7.03;1.60;;;;;;;12.26;91.70;101010.90;1749780;82;20853;-40
2022/06/16 01:07:26;;;;;;;3.10;1.87;;;;;;;12.24;91.69;101014.39;1749798;82;20893;-41
2022/06/16 01:09:54;;;;;;;2.20;1.35;;;;;;;12.23;91.61;101013.52;1720501;82;21093;-40
2022/06/16 01:16:12;;;;;;;3.15;1.40;;;;;;;12.21;89.73;101016.58;1736508;82;21475;-40
2022/06/16 01:19:05;;;;;;;1.30;1.20;;;;;;;12.23;89.34;101014.81;1736581;81;20913;-39
2022/06/16 01:22:12;;;;;;;5.58;1.40;;;;;;;12.21;88.64;101013.56;1736326;82;21184;-41
2022/06/16 01:24:51;;;;;;;3.70;1.40;;;;;;;12.19;87.89;101016.63;1736137;82;20917;-39
2022/06/16 01:27:52;;;;;;;5.05;1.50;;;;;;;12.20;86.48;101018.77;1736144;82;21396;-40
2022/06/16 01:30:35;;;;;;;1.02;1.02;;;;;;;12.23;85.91;101019.16;1736246;82;20894;-40
2022/06/16 01:33:12;;;;;;;3.62;1.85;;;;;;;12.27;85.32;101025.59;1735996;82;21458;-39
2022/06/16 01:35:56;;;;;;;1.82;1.47;;;;;;;12.28;85.46;101019.52;1736213;82;21208;-40
2022/06/16 01:38:32;;;;;;;4.78;1.35;;;;;;;12.31;84.98;101018.16;1736143;82;20968;-40
2022/06/16 01:41:22;;;;;;;2.15;1.20;;;;;;;12.33;84.55;101024.61;1735248;82;20925;-42
2022/06/16 01:44:03;;;;;;;2.72;1.35;;;;;;;12.32;84.00;101026.79;1735970;82;20940;-41
2022/06/16 01:46:32;;;;;;;4.75;1.20;;;;;;;12.30;83.48;101025.53;1736134;82;20980;-41
2022/06/16 01:49:15;;;;;;;;;;;;;;;12.31;83.20;101025.95;1738557;82;21159;-40
2022/06/16 01:51:48;;;;;;;4.35;1.27;;;;;;;12.30;83.69;101034.63;1735860;82;20450;-40
2022/06/16 01:54:19;;;;;;;3.27;1.20;;;;;;;12.25;84.44;101031.25;1736081;82;20921;-40
2022/06/16 01:57:12;;;;;;;4.25;1.70;;;;;;;12.21;84.61;101034.32;1735839;82;21376;-40
2022/06/16 01:59:45;;;;;;;3.60;1.30;;;;;;;12.17;84.41;101030.49;1736017;82;20889;-40
2022/06/16 02:02:16;;;;;;;3.02;1.32;;;;;;;12.10;83.73;101031.48;1736128;82;20977;-40
2022/06/16 02:04:51;;;;;;;10.25;1.70;;;;;;;12.06;83.20;101039.74;1735861;81;20980;-40
2022/06/16 02:07:33;;;;;;;2.80;1.45;;;;;;;12.05;82.78;101038.03;1736377;82;20965;-41
2022/06/16 02:10:07;;;;;;;4.20;1.40;;;;;;;12.08;82.57;101041.87;1735197;82;20936;-41
2022/06/16 02:15:43;;;;;;;3.72;1.40;;;;;;;12.20;83.41;101042.12;1749635;82;21123;-41
2022/06/16 02:18:14;;;;;;;8.78;1.42;;;;;;;12.19;83.85;101039.11;1737147;82;21473;-41
2022/06/16 02:20:49;;;;;;;7.97;1.62;;;;;;;12.17;83.83;101035.69;1749814;81;21383;-41
2022/06/16 02:23:16;;;;;;;3.70;1.30;;;;;;;12.12;83.62;101040.94;1750196;82;20928;-41
2022/06/16 02:25:44;;;;;;;7.15;1.62;;;;;;;12.11;83.22;101039.68;1750089;81;20916;-41
2022/06/16 02:28:12;;;;;;;8.30;1.45;;;;;;;12.14;82.76;101037.03;1750016;82;21087;-41
2022/06/16 02:30:57;;;;;;;8.65;2.45;;;;;;;12.19;82.56;101043.00;1750002;82;21023;-41
2022/06/16 02:33:32;;;;;;;2.52;1.40;;;;;;;12.24;82.29;101045.53;1749804;81;20983;-41
2022/06/16 02:36:20;;;;;;;8.23;1.15;;;;;;;12.25;82.69;101049.84;1750086;82;20905;-41
2022/06/16 02:39:18;;;;;;;10.75;1.40;;;;;;;12.23;82.89;101051.15;1722006;82;20963;-41
2022/06/16 02:42:21;;;;;;;3.75;1.37;;;;;;;12.23;83.43;101051.15;1749857;81;21206;-41
2022/06/16 02:45:12;;;;;;;8.95;1.50;;;;;;;12.25;84.14;101051.14;1748953;82;20920;-40
2022/06/16 02:47:54;;;;;;;8.45;1.30;;;;;;;12.26;84.26;101056.75;1749919;82;20948;-39
2022/06/16 02:50:36;;;;;;;4.87;1.20;;;;;;;12.28;84.33;101054.98;1748123;82;21490;-39
2022/06/16 02:53:15;;;;;;;6.15;1.77;;;;;;;12.30;84.44;101060.58;1749930;82;20909;-39
2022/06/16 02:55:43;;;;;;;2.45;1.35;;;;;;;12.39;83.76;101065.20;1749146;80;21508;-40
2022/06/16 02:58:14;;;;;;;5.70;1.57;;;;;;;12.47;82.88;101067.22;1698398;82;21362;-39
2022/06/16 03:00:46;;;;;;;9.03;1.85;;;;;;;12.60;81.75;101058.34;1748702;82;21466;-39
2022/06/16 03:03:25;;;;;;;5.65;1.37;;;;;;;12.72;81.50;101055.11;1749328;82;20964;-39
2022/06/16 03:05:58;;;;;;;3.47;1.40;;;;;;;12.81;80.94;101062.75;1749625;82;21492;-39
2022/06/16 03:08:28;;;;;;;3.62;1.32;;;;;;;12.92;80.36;101062.56;1750368;82;22148;-39
2022/06/16 03:11:02;;;;;;;4.40;1.52;;;;;;;13.02;79.62;101060.19;1749755;81;20929;-39
2022/06/16 03:13:32;;;;;;;2.22;1.40;;;;;;;13.15;79.93;101063.41;1750035;82;21576;-39
2022/06/16 03:16:00;;;;;;;2.83;1.52;;;;;;;13.24;79.21;101054.58;1749807;82;20917;-40
2022/06/16 03:18:30;;;;;;;5.00;1.30;;;;;;;13.37;78.70;101057.78;1749981;82;20967;-39
2022/06/16 03:20:59;;;;;;;2.42;1.30;;;;;;;13.50;77.39;101061.02;1749723;82;21090;-40
2022/06/16 03:23:26;;;;;;;2.08;1.42;;;;;;;13.61;77.95;101056.89;1749812;82;21418;-39
2022/06/16 03:25:53;;;;;;;3.37;1.50;;;;;;;13.70;77.61;101061.88;1749873;81;20921;-39
2022/06/16 03:28:22;;;;;;;3.47;1.70;;;;;;;13.77;77.24;101062.61;1749977;82;20975;-40
2022/06/16 03:30:50;;;;;;;5.12;1.37;;;;;;;13.87;77.05;101062.80;1750052;81;20881;-39
2022/06/16 03:33:19;;;;;;;7.60;1.45;;;;;;;13.96;77.37;101065.65;1749963;82;21158;-39
2022/06/16 03:35:48;;;;;;;2.95;1.32;;;;;;;14.07;76.75;101062.37;1749977;82;21058;-40
2022/06/16 03:40:50;;;;;;;6.58;1.32;;;;;;;14.35;76.78;101061.70;1749838;82;20972;-41
2022/06/16 03:43:18;;;;;;;7.70;2.58;;;;;;;14.60;76.82;101053.27;1749623;82;20976;-40
2022/06/16 03:45:47;;;;;;;3.95;1.70;;;;;;;14.90;75.75;101058.59;1749819;82;21090;-40
2022/06/16 03:48:16;;;;;;;4.87;1.40;;;;;;;15.22;74.67;101060.75;1749864;82;20987;-40
2022/06/16 03:50:44;;;;;;;9.68;1.80;;;;;;;15.52;73.26;101065.14;1750070;82;20881;-40
2022/06/16 03:53:13;;;;;;;4.62;1.42;;;;;;;15.83;72.32;101063.38;1750078;82;20923;-40
2022/06/16 03:55:43;;;;;;;4.42;1.40;;;;;;;16.05;71.22;101066.19;1750024;82;20936;-40
2022/06/16 03:58:12;;;;;;;9.00;1.70;;;;;;;16.28;70.41;101057.59;1750001;81;21131;-40
2022/06/16 04:00:40;;;;;;;1.82;1.40;;;;;;;16.51;69.37;101058.16;1749861;82;20916;-40
2022/06/16 04:05:55;;;;;;;4.50;1.40;;;;;;;16.90;67.56;101058.57;1749735;81;20872;-40
2022/06/16 04:08:23;;;;;;;4.45;1.40;;;;;;;17.18;67.54;101058.95;1749938;81;21003;-40
2022/06/16 04:10:53;;;;;;;4.75;1.32;;;;;;;17.42;65.94;101057.16;1749990;82;21115;-40
2022/06/16 04:13:20;;;;;;;3.12;2.05;;;;;;;17.57;65.18;101050.49;1737003;81;20913;-40
2022/06/16 04:15:50;;;;;;;3.25;1.60;;;;;;;17.79;65.30;101055.73;1735794;81;20933;-40
2022/06/16 04:18:20;;;;;;;5.70;1.30;;;;;;;18.01;63.72;101056.67;1714937;82;20940;-40
2022/06/16 04:20:48;;;;;;;7.35;1.77;;;;;;;18.16;62.14;101056.06;1735928;82;20921;-40
2022/06/16 04:23:16;;;;;;;2.05;1.22;;;;;;;18.25;62.83;101056.15;1735964;82;21122;-40
2022/06/16 04:25:46;;;;;;;2.85;1.15;;;;;;;18.31;60.08;101062.44;1735768;81;21395;-40
2022/06/16 04:28:15;;;;;;;6.53;1.37;;;;;;;18.35;60.79;101058.80;1732158;82;20937;-40
2022/06/16 04:30:56;;;;;;;3.02;1.30;;;;;;;18.41;61.56;101058.14;1735876;82;20988;-40
2022/06/16 04:33:24;;;;;;;3.50;1.40;;;;;;;18.65;61.70;101068.91;1735544;82;20925;-40
2022/06/16 04:35:53;;;;;;;2.15;1.55;;;;;;;18.73;61.30;101071.64;1735993;82;21082;-41
2022/06/16 04:38:21;;;;;;;4.33;1.37;;;;;;;18.92;61.00;101070.38;1715303;82;21020;-40
2022/06/16 04:40:49;;;;;;;7.87;1.25;;;;;;;19.12;59.54;101070.86;1735927;82;20948;-41
2022/06/16 04:43:17;;;;;;;2.77;1.45;;;;;;;19.21;58.87;101066.50;1735897;82;21486;-40
2022/06/16 04:45:49;;;;;;;4.58;1.70;;;;;;;19.27;58.20;101069.77;1734618;82;20980;-40
2022/06/16 04:48:16;;;;;;;1.98;1.70;;;;;;;19.26;57.93;101074.63;1715024;82;21125;-40
2022/06/16 04:50:45;;;;;;;5.72;1.52;;;;;;;19.40;58.57;101077.48;1735888;82;20882;-40
2022/06/16 04:53:14;;;;;;;11.15;1.77;;;;;;;19.57;58.06;101075.38;1735830;82;20925;-41
2022/06/16 04:55:42;;;;;;;8.40;1.70;;;;;;;19.61;57.48;101077.42;1732855;82;20897;-40
2022/06/16 04:58:27;;;;;;;12.10;1.10;;;;;;;19.68;57.84;101072.26;1734874;82;20973;-41
2022/06/16 05:00:55;;;;;;;13.75;1.62;;;;;;;19.89;56.44;101079.56;1736117;82;21148;-40
2022/06/16 05:03:32;;;;;;;1.90;1.30;;;;;;;19.90;53.51;101074.70;1734100;82;20925;-40
2022/06/16 05:06:01;;;;;;;2.50;1.27;;;;;;;19.85;54.10;101079.81;1692012;82;21047;-41
2022/06/16 05:08:36;;;;;;;7.28;1.17;;;;;;;19.92;54.72;101079.45;1734828;82;20988;-40
2022/06/16 05:11:08;;;;;;;4.95;1.40;;;;;;;20.04;53.79;101072.75;1733844;82;21462;-40
2022/06/16 05:13:40;;;;;;;1.82;1.17;;;;;;;20.22;54.70;101079.36;1748443;81;21167;-40
2022/06/16 05:16:28;;;;;;;2.70;1.22;;;;;;;20.37;54.20;101075.98;1750011;82;20869;-40
2022/06/16 05:18:56;;;;;;;3.67;1.20;;;;;;;20.60;54.59;101082.31;1733469;82;21443;-40
2022/06/16 05:21:34;;;;;;;3.70;1.02;;;;;;;20.81;53.88;101083.01;1748823;82;20928;-40
2022/06/16 05:24:21;;;;;;;4.03;1.25;;;;;;;20.99;52.86;101083.86;1747875;82;20995;-41
2022/06/16 05:27:07;;;;;;;2.87;1.15;;;;;;;21.29;53.47;101080.52;1750282;81;21291;-41
2022/06/16 05:29:38;;;;;;;2.40;1.10;;;;;;;21.63;51.60;101077.83;1748631;82;21518;-41
2022/06/16 05:32:25;;;;;;;2.70;1.30;;;;;;;21.82;51.32;101074.56;1746575;82;20968;-41
2022/06/16 05:34:58;;;;;;;6.40;1.30;;;;;;;22.04;50.80;101075.15;1749930;82;20940;-41
2022/06/16 05:37:39;;;;;;;2.30;1.20;;;;;;;22.05;48.71;101068.45;1712989;82;21335;-41
2022/06/16 05:40:24;;;;;;;7.70;1.22;;;;;;;21.96;49.00;101068.50;1750271;81;21774;-41
2022/06/16 05:43:02;;;;;;;1.77;1.12;;;;;;;21.82;49.20;101081.63;1746368;82;21003;-40
2022/06/16 05:45:46;;;;;;;9.33;1.40;;;;;;;21.55;49.50;101082.20;1749495;82;20876;-41
2022/06/16 05:48:16;;;;;;;6.50;1.17;;;;;;;21.41;50.86;101080.32;1749425;82;20956;-41
2022/06/16 05:50:45;;;;;;;6.45;1.65;;;;;;;21.51;51.84;101083.30;1749972;81;20960;-40
2022/06/16 05:53:11;;;;;;;5.30;1.65;;;;;;;21.42;49.81;101083.34;1750006;81;21066;-40
2022/06/16 05:55:40;;;;;;;3.90;1.60;;;;;;;21.27;51.87;101080.20;1749766;81;20928;-40
2022/06/16 05:58:08;;;;;;;4.12;1.50;;;;;;;21.40;52.11;101086.52;1750109;82;20881;-40
2022/06/16 06:00:38;;;;;;;4.55;1.80;;;;;;;21.73;52.45;101084.30;1748657;82;20972;-40
2022/06/16 06:03:08;;;;;;;3.45;1.30;;;;;;;22.10;50.38;101079.61;1750157;81;20925;-41
2022/06/16 06:05:37;;;;;;;16.70;2.60;;;;;;;22.31;49.92;101071.85;1749550;82;21973;-41
2022/06/16 06:19:31;;;;;;;15.70;1.85;;;;;;;23.33;46.80;101076.80;1810823;77;22782;-43
2022/06/16 06:22:11;;;;;;;5.75;1.20;;;;;;;23.36;47.47;101076.60;1770180;79;21413;-44
2022/06/16 06:24:43;;;;;;;39.08;3.10;;;;;;;23.24;46.26;101080.82;1776388;79;21156;-43
2022/06/16 06:27:33;;;;;;;7.85;1.05;;;;;;;22.94;46.68;101085.73;1772355;80;20944;-44
2022/06/16 06:30:01;;;;;;;8.40;1.37;;;;;;;22.58;46.62;101083.89;1785124;80;21002;-44
2022/06/16 06:32:28;;;;;;;12.30;1.50;;;;;;;22.50;48.65;101087.47;1745387;81;21022;-44
2022/06/16 06:34:57;;;;;;;4.35;1.10;;;;;;;22.56;48.82;101085.78;1717070;82;20863;-44
2022/06/16 06:37:26;;;;;;;98.90;7.97;;;;;;;22.57;47.98;101083.52;1751455;81;21422;-44
2022/06/16 06:39:54;;;;;;;64.85;3.12;;;;;;;22.41;46.95;101090.63;1711449;82;20941;-44
2022/06/16 06:42:21;;;;;;;8.83;1.00;;;;;;;22.23;46.80;101090.75;1740349;81;20944;-44
2022/06/16 06:44:48;;;;;;;40.63;3.00;;;;;;;22.13;47.00;101089.59;1707576;82;21461;-44
2022/06/16 06:47:24;;;;;;;9.20;1.62;;;;;;;22.03;47.78;101084.83;1737527;81;20886;-44
2022/06/16 06:49:51;;;;;;;14.47;1.40;;;;;;;22.24;48.57;101080.58;1705482;83;21107;-43
2022/06/16 06:52:19;;;;;;;69.80;4.37;;;;;;;22.24;48.57;101080.58;1735672;82;20945;-43
2022/06/16 06:54:46;;;;;;;48.28;3.37;;;;;;;22.23;47.24;101090.30;1774714;80;20936;-43
2022/06/16 06:57:24;;;;;;;26.37;2.95;;;;;;;22.09;48.20;101089.73;1776246;79;20889;-42
2022/06/16 06:59:52;;;;;;;7.53;1.00;;;;;;;22.23;48.48;101089.43;1772896;80;20840;-43
2022/06/16 07:02:19;;;;;;;37.23;2.05;;;;;;;22.29;47.16;101086.43;1733962;81;21206;-43
2022/06/16 07:04:47;;;;;;;43.58;3.67;;;;;;;22.33;46.94;101087.95;1711683;83;20940;-44
2022/06/16 07:07:17;;;;;;;14.40;1.80;;;;;;;22.33;47.36;101088.43;1735615;81;20897;-43
2022/06/16 07:09:45;;;;;;;27.50;2.58;;;;;;;22.43;47.82;101088.26;1712282;83;20911;-43
2022/06/16 07:12:15;;;;;;;5.87;1.50;;;;;;;22.53;47.07;101079.38;1737432;81;20929;-43
2022/06/16 07:14:48;;;;;;;5.72;1.40;;;;;;;22.68;48.93;101078.92;1772850;80;22034;-44
2022/06/16 07:17:16;;;;;;;10.75;1.57;;;;;;;22.90;46.55;101077.17;1711317;83;20888;-43
2022/06/16 07:19:44;;;;;;;4.67;1.57;;;;;;;22.95;45.97;101086.97;1737852;81;20979;-43
2022/06/16 07:22:11;;;;;;;3.90;1.30;;;;;;;22.88;45.98;101086.98;1742216;81;21406;-43
2022/06/16 07:24:38;;;;;;;13.48;1.65;;;;;;;22.84;47.35;101081.48;1749357;81;20931;-42
2022/06/16 07:27:05;;;;;;;10.28;1.40;;;;;;;22.89;47.21;101087.81;1734835;82;21890;-43
2022/06/16 07:29:33;;;;;;;33.70;3.10;;;;;;;22.79;46.22;101080.92;1732086;81;21492;-43
2022/06/16 07:32:00;;;;;;;6.70;1.85;;;;;;;22.85;47.18;101081.03;1745950;81;20967;-44
2022/06/16 07:34:27;;;;;;;4.30;1.35;;;;;;;22.95;46.80;101082.16;1748938;81;21435;-43
2022/06/16 07:36:54;;;;;;;12.20;1.92;;;;;;;23.07;46.19;101077.91;1739472;81;21053;-43
2022/06/16 07:39:21;;;;;;;8.55;1.62;;;;;;;23.06;46.55;101077.08;1746597;81;21173;-43
2022/06/16 07:41:48;;;;;;;2.90;1.32;;;;;;;23.02;47.00;101072.08;1733939;81;21547;-43
2022/06/16 07:44:16;;;;;;;29.40;1.80;;;;;;;23.06;46.54;101074.44;1737404;81;20951;-43
2022/06/16 07:46:44;;;;;;;3.52;1.05;;;;;;;23.07;47.31;101073.95;1740294;81;20905;-43
2022/06/16 07:49:14;;;;;;;55.45;3.45;;;;;;;23.15;46.29;101067.75;1736800;81;20972;-44
2022/06/16 07:51:41;;;;;;;6.72;1.85;;;;;;;23.18;48.23;101070.65;1747565;81;21235;-43
2022/06/16 07:54:10;;;;;;;7.55;1.10;;;;;;;23.37;47.17;101072.55;1754009;81;21389;-44
2022/06/16 07:56:38;;;;;;;2.62;1.00;;;;;;;23.53;47.71;101076.39;1740663;81;20901;-44
2022/06/16 07:59:04;;;;;;;2.12;1.00;;;;;;;23.46;47.25;101074.23;1740122;81;20900;-43
2022/06/16 08:01:31;;;;;;;4.80;1.25;;;;;;;23.41;47.28;101075.86;1738545;81;20960;-43
2022/06/16 08:04:05;;;;;;;2.15;1.30;;;;;;;23.48;45.90;101078.94;1767308;79;21790;-43
2022/06/16 08:06:28;;;;;;;8.90;1.10;;;;;;;23.43;45.46;101077.93;1760543;80;20928;-43
2022/06/16 08:08:55;;;;;;;2.52;1.10;;;;;;;23.45;44.57;101076.50;1741090;80;20975;-43
2022/06/16 08:14:06;;;;;;;2.10;1.15;;;;;;;23.92;46.41;101072.59;1755290;81;20983;-45
2022/06/16 08:16:35;;;;;;;9.88;1.37;;;;;;;24.02;46.05;101074.20;1749609;81;21145;-44
2022/06/16 08:19:03;;;;;;;6.05;1.30;;;;;;;23.94;45.57;101073.34;1706542;82;20896;-44
2022/06/16 08:21:31;;;;;;;24.90;2.25;;;;;;;24.09;44.75;101078.61;1763587;80;20924;-44
2022/06/16 08:23:59;;;;;;;48.80;4.28;;;;;;;24.14;44.75;101077.83;1758908;80;21323;-44
2022/06/16 08:26:25;;;;;;;2.20;1.30;;;;;;;24.07;45.26;101073.91;1731439;80;21000;-44
2022/06/16 08:28:54;;;;;;;6.12;1.27;;;;;;;23.98;45.53;101079.28;1773479;79;21229;-45
2022/06/16 08:31:23;;;;;;;9.38;1.57;;;;;;;23.95;45.77;101078.17;1769322;80;20945;-44
2022/06/16 08:33:50;;;;;;;1.45;1.12;;;;;;;23.95;45.38;101070.23;1743738;81;21016;-45
2022/06/16 08:36:16;;;;;;;3.10;0.98;;;;;;;24.15;45.89;101074.72;1764981;80;21474;-44
2022/06/16 08:38:43;;;;;;;4.50;1.00;;;;;;;24.23;44.76;101077.20;1778171;78;20972;-45
2022/06/16 08:41:12;;;;;;;2.60;0.93;;;;;;;24.29;45.78;101075.95;1768879;78;21788;-44
2022/06/16 08:44:09;;;;;;;5.45;1.00;;;;;;;24.43;44.29;101074.20;1771335;79;20955;-45
2022/06/16 08:46:41;;;;;;;9.38;1.17;;;;;;;24.49;44.02;101069.80;1734707;81;28223;-44
2022/06/16 08:49:32;;;;;;;88.87;5.00;;;;;;;24.43;44.60;101066.26;1732247;81;21010;-45
2022/06/16 08:52:28;;;;;;;3.72;1.52;;;;;;;24.56;44.49;101068.42;1623167;87;21008;-45
2022/06/16 08:55:16;;;;;;;2.33;1.20;;;;;;;24.78;42.96;101069.63;1723104;82;21074;-45
2022/06/16 08:58:13;;;;;;;14.95;1.87;;;;;;;24.85;43.65;101072.71;1717850;82;20957;-43
2022/06/16 09:00:54;;;;;;;37.03;3.10;;;;;;;25.15;42.95;101071.05;1685318;84;21513;-44
2022/06/16 09:03:41;;;;;;;8.48;1.35;;;;;;;25.29;42.55;101070.53;1708126;81;20964;-44
2022/06/16 09:06:32;;;;;;;16.23;1.62;;;;;;;25.27;41.78;101064.50;1693070;81;20901;-44
2022/06/16 09:09:13;;;;;;;6.25;1.30;;;;;;;25.09;43.71;101068.81;1703875;81;21134;-43
2022/06/16 09:12:06;;;;;;;7.03;1.55;;;;;;;25.24;41.61;101066.88;1701381;83;21007;-44
2022/06/16 09:15:12;;;;;;;2.85;0.90;;;;;;;25.37;42.36;101066.84;1737862;81;21003;-43
2022/06/16 09:18:22;;;;;;;3.90;0.98;;;;;;;25.45;42.06;101076.89;1702258;83;20980;-43
2022/06/16 09:21:22;;;;;;;5.33;1.20;;;;;;;25.30;41.33;101068.25;1705750;83;20924;-43
2022/06/16 09:24:09;;;;;;;6.08;1.27;;;;;;;25.03;43.02;101073.22;1713181;83;21396;-43
2022/06/16 09:26:54;;;;;;;3.42;1.10;;;;;;;24.94;42.29;101072.92;1702712;83;20937;-44
2022/06/16 09:29:41;;;;;;;3.45;1.10;;;;;;;25.32;43.00;101062.36;1694707;83;21077;-44
2022/06/16 09:32:27;;;;;;;7.22;1.25;;;;;;;25.79;42.26;101062.07;1682619;83;21043;-44
2022/06/16 09:35:16;;;;;;;3.45;1.20;;;;;;;25.80;41.32;101066.41;1710025;83;20948;-44
2022/06/16 09:38:09;;;;;;;1.62;1.27;;;;;;;25.71;40.17;101068.89;1698396;83;22125;-43
2022/06/16 09:40:46;;;;;;;1.15;1.00;;;;;;;25.57;40.70;101069.44;1763037;80;20995;-43
2022/06/16 09:43:41;;;;;;;1.45;0.93;;;;;;;25.62;40.75;101067.75;1791487;80;21003;-43
2022/06/16 09:46:23;;;;;;;2.00;1.07;;;;;;;25.27;40.72;101069.80;1774713;80;21443;-43
2022/06/16 09:48:59;;;;;;;1.75;0.90;;;;;;;24.94;43.00;101070.73;1758410;80;20978;-44
2022/06/16 09:51:38;;;;;;;4.12;0.90;;;;;;;25.17;43.07;101069.13;1687380;83;21166;-45
2022/06/16 09:54:37;;;;;;;6.37;1.27;;;;;;;25.54;42.00;101062.54;1688492;83;20980;-45
2022/06/16 09:57:15;;;;;;;2.42;0.90;;;;;;;25.92;41.44;101051.90;1741830;81;20939;-44
2022/06/16 09:59:54;;;;;;;7.87;1.30;;;;;;;26.29;39.92;101058.43;1763124;80;20975;-44
2022/06/16 10:02:26;;;;;;;2.30;1.27;;;;;;;26.47;40.52;101061.98;1766160;80;21520;-45
2022/06/16 10:04:54;;;;;;;7.83;2.15;;;;;;;26.24;39.27;101065.41;1699559;83;21286;-44
2022/06/16 10:07:32;;;;;;;4.78;1.02;;;;;;;26.09;39.85;101062.56;1732005;81;21034;-44
2022/06/16 10:10:23;;;;;;;20.40;1.70;;;;;;;25.96;39.54;101067.94;1744700;81;21094;-45
2022/06/16 10:13:25;;;;;;;3.45;1.00;;;;;;;25.51;40.68;101068.06;1725057;82;20978;-44
2022/06/16 10:16:02;;;;;;;9.70;1.60;;;;;;;25.00;40.45;101056.23;1707525;82;21012;-44
2022/06/16 10:18:29;;;;;;;8.73;1.30;;;;;;;24.76;41.98;101059.63;1761570;79;21810;-44
2022/06/16 10:20:57;;;;;;;14.07;1.17;;;;;;;24.52;42.56;101058.55;1764604;79;20962;-44
2022/06/16 10:23:29;;;;;;;25.00;2.22;;;;;;;24.31;41.48;101048.93;1739988;81;21564;-44
2022/06/16 10:25:59;;;;;;;9.88;1.20;;;;;;;24.22;42.67;101049.56;1777029;79;20936;-44
2022/06/16 10:28:38;;;;;;;13.93;1.27;;;;;;;24.44;41.62;101047.63;1742799;81;21059;-45
2022/06/16 10:31:05;;;;;;;2.05;0.90;;;;;;;24.77;43.30;101047.63;1706588;82;21783;-43
2022/06/16 10:33:36;;;;;;;6.53;1.05;;;;;;;25.41;42.11;101047.14;1769556;79;21497;-44
2022/06/16 10:36:17;;;;;;;28.80;2.47;;;;;;;25.72;41.43;101050.23;1748428;81;20975;-44
2022/06/16 10:38:50;;;;;;;4.45;1.10;;;;;;;25.95;39.40;101041.06;1758396;79;21043;-45
2022/06/16 10:41:37;;;;;;;14.83;1.50;;;;;;;25.86;39.43;101039.94;1712063;80;21478;-43
2022/06/16 10:44:04;;;;;;;11.65;1.32;;;;;;;25.70;39.77;101034.92;1737363;80;21401;-45
2022/06/16 10:46:37;;;;;;;3.42;0.93;;;;;;;25.77;38.63;101030.02;1761050;80;20940;-45
2022/06/16 10:49:07;;;;;;;10.85;1.27;;;;;;;25.91;40.89;101031.16;1719784;80;21058;-44
2022/06/16 10:51:36;;;;;;;5.58;1.22;;;;;;;26.36;38.55;101030.96;1759944;80;21034;-44
2022/06/16 10:54:31;;;;;;;6.22;1.10;;;;;;;26.60;38.29;101041.48;1767196;80;20948;-44
2022/06/16 10:57:09;;;;;;;68.85;3.70;;;;;;;26.61;37.37;101039.68;1771231;80;21266;-45
2022/06/16 10:59:39;;;;;;;10.60;1.72;;;;;;;26.48;37.39;101030.50;1765369;79;21018;-44
2022/06/16 11:02:21;;;;;;;8.10;1.22;;;;;;;26.46;39.35;101031.10;1744164;80;20940;-45
2022/06/16 11:04:53;;;;;;;7.85;1.05;;;;;;;26.72;37.17;101026.91;1738245;81;21012;-45
2022/06/16 11:07:21;;;;;;;3.02;0.90;;;;;;;26.81;37.20;101031.02;1701289;83;21145;-44
2022/06/16 11:09:51;;;;;;;22.42;2.27;;;;;;;26.82;37.12;101030.05;1698503;83;20918;-44
2022/06/16 11:12:22;;;;;;;23.45;1.77;;;;;;;26.80;35.89;101031.98;1703526;83;21107;-45
2022/06/16 11:14:56;;;;;;;14.05;1.20;;;;;;;26.55;37.83;101031.70;1695080;83;20996;-45
2022/06/16 11:17:30;;;;;;;10.25;1.00;;;;;;;26.67;37.67;101021.94;1731303;81;21565;-45
2022/06/16 11:20:05;;;;;;;9.18;0.90;;;;;;;26.74;36.57;101025.80;1713872;82;21509;-45
2022/06/16 11:22:39;;;;;;;7.22;0.85;;;;;;;26.68;38.15;101024.95;1717581;83;21251;-45
2022/06/16 11:25:31;;;;;;;2.67;0.90;;;;;;;26.79;36.22;101028.96;1714158;82;20912;-45
2022/06/16 11:28:02;;;;;;;55.78;2.85;;;;;;;26.75;36.20;101017.37;1689865;84;21058;-44
2022/06/16 11:30:40;;;;;;;4.53;0.88;;;;;;;26.80;37.49;101025.81;1694862;82;21015;-44
2022/06/16 11:36:45;;;;;;;7.40;1.55;;;;;;;26.82;37.84;101023.87;1717967;82;21135;-44
2022/06/16 11:39:42;;;;;;;1.07;0.70;;;;;;;26.89;36.57;101017.14;1722381;81;20979;-44
2022/06/16 11:42:40;;;;;;;22.22;2.35;;;;;;;26.79;37.16;101016.16;1720141;80;21031;-44
2022/06/16 11:45:47;;;;;;;9.38;1.52;;;;;;;26.66;36.45;101018.46;1721500;81;21487;-46
2022/06/16 11:48:31;;;;;;;11.50;1.27;;;;;;;26.51;36.66;101019.14;1720470;82;21031;-44
2022/06/16 11:57:38;;;;;;;6.92;1.10;;;;;;;27.52;34.76;101005.95;1803639;78;22411;-43
2022/06/16 12:00:17;;;;;;;7.87;0.95;;;;;;;27.42;34.20;101006.33;1759448;80;20910;-44
2022/06/16 12:03:10;;;;;;;5.75;1.00;;;;;;;27.06;35.14;101003.01;1740628;81;21252;-44
2022/06/16 12:06:18;;;;;;;6.83;1.30;;;;;;;27.03;34.35;101005.45;1778657;79;20907;-44
2022/06/16 12:09:12;;;;;;;10.15;1.00;;;;;;;27.17;35.36;101003.00;1766655;79;20992;-45
2022/06/16 12:11:57;;;;;;;8.60;1.05;;;;;;;27.46;34.60;100999.79;1773778;80;21501;-44
2022/06/16 12:14:29;;;;;;;31.00;2.20;;;;;;;27.60;34.89;101001.34;1757589;80;20964;-44
2022/06/16 12:17:11;;;;;;;25.68;2.20;;;;;;;27.94;34.25;101007.00;1764457;80;21112;-45
2022/06/16 12:20:14;;;;;;;9.33;1.10;;;;;;;27.97;34.05;101002.75;1760531;80;21595;-45
2022/06/16 12:22:56;;;;;;;3.05;1.00;;;;;;;27.91;34.12;101000.58;1695681;83;21035;-45
2022/06/16 12:25:34;;;;;;;104.63;7.95;;;;;;;27.73;33.88;100996.32;1724270;81;21549;-44
2022/06/16 12:28:18;;;;;;;41.13;2.35;;;;;;;27.75;33.91;101001.88;1716166;81;20987;-44
2022/06/16 12:31:05;;;;;;;11.65;1.10;;;;;;;27.95;35.66;100994.89;1689680;83;21265;-46
2022/06/16 12:33:44;;;;;;;51.77;3.55;;;;;;;28.12;32.72;100995.28;1707645;83;20992;-45
2022/06/16 12:36:18;;;;;;;15.93;1.30;;;;;;;27.76;34.55;101002.23;1713717;82;21517;-43
2022/06/16 12:38:50;;;;;;;5.30;1.10;;;;;;;27.64;32.75;100990.81;1746453;81;20893;-44